Time;durP1;ratioP1;P1;durP2;ratioP2;P2;SDS_P1;SDS_P2;PMS_P1;PMS_P2;Temp;Humidity;BMP_temperature;BMP_pressure;BME280_temperature;BME280_humidity;BME280_pressure;Samples;Min_cycle;Max_cycle;Signal;HPM_P1;HPM_P2
2023/08/08 00:01:35;;;;;;;7.87;2.57;;;11.50;99.90;;;;;;5047111;28;20241;-81
2023/08/08 00:04:01;;;;;;;6.50;2.20;;;11.50;99.90;;;;;;5043733;28;20241;-81
2023/08/08 00:06:28;;;;;;;3.70;2.30;;;11.50;99.90;;;;;;5034972;28;20284;-80
2023/08/08 00:08:55;;;;;;;4.73;2.00;;;11.50;99.90;;;;;;5029062;28;20307;-80
2023/08/08 00:11:23;;;;;;;5.53;2.00;;;11.50;99.90;;;;;;5033237;28;20322;-80
2023/08/08 00:13:49;;;;;;;7.40;2.50;;;11.50;99.90;;;;;;5032895;28;20238;-80
2023/08/08 00:16:16;;;;;;;7.43;2.23;;;11.50;99.90;;;;;;5048336;28;20253;-80
2023/08/08 00:18:43;;;;;;;6.77;2.50;;;11.50;99.90;;;;;;5044264;28;20300;-80
2023/08/08 00:21:10;;;;;;;9.00;2.73;;;11.40;99.90;;;;;;5028116;28;20735;-80
2023/08/08 00:23:36;;;;;;;6.40;2.27;;;11.50;99.90;;;;;;5044178;28;20221;-80
2023/08/08 00:26:03;;;;;;;4.60;2.53;;;11.40;99.90;;;;;;5030744;28;20234;-80
2023/08/08 00:28:31;;;;;;;4.13;2.20;;;11.40;99.90;;;;;;5045357;28;20310;-80
2023/08/08 00:30:58;;;;;;;4.67;2.30;;;11.40;99.90;;;;;;5026521;28;20288;-80
2023/08/08 00:33:25;;;;;;;4.57;2.20;;;11.40;99.90;;;;;;5042650;28;20228;-80
2023/08/08 00:35:52;;;;;;;4.60;2.40;;;11.50;99.90;;;;;;5049308;28;20233;-81
2023/08/08 00:38:19;;;;;;;6.77;2.40;;;11.50;99.90;;;;;;5045834;28;20311;-80
2023/08/08 00:40:46;;;;;;;5.23;2.50;;;11.50;99.90;;;;;;5050281;28;20626;-80
2023/08/08 00:43:13;;;;;;;6.57;2.30;;;11.50;99.90;;;;;;5033946;28;20222;-80
2023/08/08 00:45:43;;;;;;;6.10;2.50;;;11.50;99.90;;;;;;5042599;28;20307;-80
2023/08/08 00:48:11;;;;;;;4.40;2.20;;;11.50;99.90;;;;;;5030334;28;20292;-80
2023/08/08 00:50:44;;;;;;;5.33;2.50;;;11.50;99.90;;;;;;5033099;28;20229;-80
2023/08/08 00:53:12;;;;;;;3.60;2.27;;;11.50;99.90;;;;;;5039469;28;20293;-80
2023/08/08 00:55:40;;;;;;;4.47;2.10;;;11.50;99.90;;;;;;5022844;28;20227;-80
2023/08/08 00:58:07;;;;;;;5.60;2.57;;;11.50;99.90;;;;;;5024617;28;20263;-79
2023/08/08 01:00:35;;;;;;;6.50;2.50;;;11.50;99.90;;;;;;5052084;28;20253;-79
2023/08/08 01:03:04;;;;;;;5.40;2.93;;;11.50;99.90;;;;;;5021875;28;20892;-79
2023/08/08 01:05:42;;;;;;;6.53;2.47;;;11.50;99.90;;;;;;5030597;28;20237;-79
2023/08/08 01:08:09;;;;;;;5.47;2.00;;;11.50;99.90;;;;;;5030783;28;20428;-80
2023/08/08 01:10:40;;;;;;;5.50;2.30;;;11.50;99.90;;;;;;5031804;28;20237;-80
2023/08/08 01:13:10;;;;;;;3.90;2.00;;;11.50;99.90;;;;;;5042498;28;20303;-80
2023/08/08 01:15:38;;;;;;;5.50;2.10;;;11.40;99.90;;;;;;5030900;28;20333;-80
2023/08/08 01:18:08;;;;;;;4.87;2.40;;;11.40;99.90;;;;;;5026691;28;20231;-80
2023/08/08 01:20:37;;;;;;;4.60;2.10;;;11.40;99.90;;;;;;5046493;28;20224;-80
2023/08/08 01:23:13;;;;;;;5.73;2.47;;;11.40;99.90;;;;;;5048880;28;20232;-80
2023/08/08 01:25:42;;;;;;;3.73;2.00;;;11.40;99.90;;;;;;5052757;28;20220;-81
2023/08/08 01:28:09;;;;;;;3.10;2.10;;;11.40;99.90;;;;;;5024425;28;20286;-80
2023/08/08 01:30:36;;;;;;;3.30;2.10;;;11.40;99.90;;;;;;5050767;28;20282;-80
2023/08/08 01:33:03;;;;;;;5.10;2.00;;;11.40;99.90;;;;;;5046289;28;20219;-80
2023/08/08 01:35:32;;;;;;;3.53;1.87;;;11.40;99.90;;;;;;5036696;28;20252;-80
2023/08/08 01:38:08;;;;;;;4.07;1.93;;;11.40;99.90;;;;;;5044764;28;20324;-80
2023/08/08 01:40:37;;;;;;;3.93;1.90;;;11.40;99.90;;;;;;5032054;28;20235;-79
2023/08/08 01:43:06;;;;;;;3.93;1.80;;;11.50;99.90;;;;;;5030102;28;20729;-79
2023/08/08 01:45:33;;;;;;;4.13;1.90;;;11.50;99.90;;;;;;5037877;28;20228;-80
2023/08/08 01:48:00;;;;;;;4.20;2.00;;;11.40;99.90;;;;;;5020553;28;20226;-80
2023/08/08 01:50:29;;;;;;;5.33;2.30;;;11.50;99.90;;;;;;5048184;28;20224;-80
2023/08/08 01:52:56;;;;;;;6.73;2.10;;;11.40;99.90;;;;;;5045576;28;20693;-80
2023/08/08 01:55:22;;;;;;;4.90;1.97;;;11.50;99.90;;;;;;5025428;28;20279;-80
2023/08/08 01:57:50;;;;;;;5.60;2.00;;;11.50;99.90;;;;;;5035378;28;20808;-79
2023/08/08 02:00:18;;;;;;;5.30;2.40;;;11.50;99.90;;;;;;5047444;28;20322;-79
2023/08/08 02:02:45;;;;;;;4.30;1.93;;;11.60;99.90;;;;;;5048799;28;20216;-79
2023/08/08 02:05:12;;;;;;;6.73;2.23;;;11.60;99.90;;;;;;5030206;28;20239;-79
2023/08/08 02:07:39;;;;;;;5.03;2.00;;;11.60;99.90;;;;;;5048835;28;20234;-79
2023/08/08 02:10:06;;;;;;;12.97;2.17;;;11.60;99.90;;;;;;5029435;28;20220;-79
2023/08/08 02:12:33;;;;;;;7.87;2.00;;;11.60;99.90;;;;;;5028992;28;20282;-79
2023/08/08 02:15:00;;;;;;;3.83;1.67;;;11.60;99.90;;;;;;5047594;28;20318;-79
2023/08/08 02:17:28;;;;;;;6.97;1.80;;;11.60;99.90;;;;;;5029321;28;20603;-79
2023/08/08 02:19:54;;;;;;;4.63;2.00;;;11.60;99.90;;;;;;5047702;28;20226;-78
2023/08/08 02:22:21;;;;;;;5.50;1.77;;;11.70;99.90;;;;;;5046851;28;20312;-79
2023/08/08 02:24:48;;;;;;;10.83;2.23;;;11.70;99.90;;;;;;5046439;28;20709;-79
2023/08/08 02:27:15;;;;;;;3.97;1.70;;;11.70;99.90;;;;;;5030242;28;20224;-80
2023/08/08 02:29:41;;;;;;;4.83;1.93;;;11.70;99.90;;;;;;5049197;28;20223;-79
2023/08/08 02:32:08;;;;;;;5.10;1.80;;;11.70;99.90;;;;;;5029538;28;20282;-80
2023/08/08 02:34:36;;;;;;;8.07;2.00;;;11.70;99.90;;;;;;5047914;28;20232;-79
2023/08/08 02:37:03;;;;;;;3.33;1.60;;;11.70;99.90;;;;;;5047402;28;20632;-79
2023/08/08 02:39:30;;;;;;;4.50;1.47;;;11.70;99.90;;;;;;5029553;28;20277;-78
2023/08/08 02:41:57;;;;;;;4.70;1.63;;;11.70;99.90;;;;;;5047432;28;20329;-79
2023/08/08 02:44:25;;;;;;;5.27;1.27;;;11.70;99.90;;;;;;5046393;28;20701;-79
2023/08/08 02:46:52;;;;;;;3.13;1.43;;;11.70;99.90;;;;;;5029342;28;20227;-79
2023/08/08 02:49:19;;;;;;;3.63;1.50;;;11.60;99.90;;;;;;5047067;28;20267;-79
2023/08/08 02:51:47;;;;;;;3.20;1.53;;;11.70;99.90;;;;;;5030593;28;20221;-80
2023/08/08 02:54:14;;;;;;;4.00;1.80;;;11.60;99.90;;;;;;5047154;28;20602;-79
2023/08/08 02:56:43;;;;;;;2.73;1.30;;;11.70;99.90;;;;;;5032532;28;20223;-79
2023/08/08 02:59:11;;;;;;;4.00;1.47;;;11.70;99.90;;;;;;5029350;28;20226;-78
2023/08/08 03:01:39;;;;;;;4.37;1.57;;;11.70;99.90;;;;;;5029698;28;20257;-79
2023/08/08 03:04:11;;;;;;;5.47;1.43;;;11.70;99.90;;;;;;5029206;28;20228;-79
2023/08/08 03:06:37;;;;;;;3.37;1.47;;;11.70;99.90;;;;;;5048046;28;20223;-78
2023/08/08 03:09:06;;;;;;;3.80;1.50;;;11.70;99.90;;;;;;5028750;28;20233;-78
2023/08/08 03:11:33;;;;;;;3.33;1.30;;;11.70;99.90;;;;;;5045185;28;20229;-79
2023/08/08 03:14:00;;;;;;;3.60;1.30;;;11.70;99.90;;;;;;5029051;28;20218;-79
2023/08/08 03:16:27;;;;;;;2.47;1.27;;;11.60;99.90;;;;;;5030198;28;20227;-79
2023/08/08 03:18:56;;;;;;;2.60;1.20;;;11.60;99.90;;;;;;5031536;28;20224;-79
2023/08/08 03:21:23;;;;;;;2.53;1.00;;;11.70;99.90;;;;;;5032495;28;20232;-79
2023/08/08 03:23:51;;;;;;;4.10;1.60;;;11.70;99.90;;;;;;5047577;28;20224;-79
2023/08/08 03:26:19;;;;;;;2.70;1.23;;;11.70;99.90;;;;;;5029919;28;20234;-79
2023/08/08 03:28:50;;;;;;;5.87;1.20;;;11.70;99.90;;;;;;5030465;28;20608;-80
2023/08/08 03:31:18;;;;;;;3.80;1.33;;;11.70;99.90;;;;;;5045568;28;20309;-80
2023/08/08 03:33:44;;;;;;;5.23;1.57;;;11.70;99.90;;;;;;5045636;28;20227;-79
2023/08/08 03:36:13;;;;;;;3.50;1.30;;;11.70;99.90;;;;;;5046053;28;20228;-79
2023/08/08 03:38:40;;;;;;;4.27;1.57;;;11.70;99.90;;;;;;5045286;28;20628;-80
2023/08/08 03:41:08;;;;;;;3.03;1.70;;;11.70;99.90;;;;;;5048236;28;20238;-80
2023/08/08 03:43:36;;;;;;;5.73;1.30;;;11.70;99.90;;;;;;5029823;28;20634;-80
2023/08/08 03:46:02;;;;;;;5.67;1.70;;;11.70;99.90;;;;;;5029434;28;20226;-80
2023/08/08 03:48:30;;;;;;;4.47;1.43;;;11.70;99.90;;;;;;5029149;28;20232;-80
2023/08/08 03:50:57;;;;;;;4.17;1.50;;;11.70;99.90;;;;;;5045508;28;20571;-79
2023/08/08 03:53:23;;;;;;;2.60;1.33;;;11.70;99.90;;;;;;5045280;28;20235;-81
2023/08/08 03:55:50;;;;;;;4.63;1.70;;;11.70;99.90;;;;;;5031244;28;20767;-80
2023/08/08 03:58:19;;;;;;;3.47;1.37;;;11.70;99.90;;;;;;5030847;28;20928;-80
2023/08/08 04:00:47;;;;;;;4.70;1.50;;;11.70;99.90;;;;;;5047854;28;20224;-80
2023/08/08 04:03:15;;;;;;;3.90;1.33;;;11.80;99.90;;;;;;5030891;28;20238;-81
2023/08/08 04:05:42;;;;;;;3.83;1.40;;;11.80;99.90;;;;;;5029869;28;20330;-80
2023/08/08 04:08:08;;;;;;;2.87;1.60;;;11.80;99.90;;;;;;5029224;28;20239;-80
2023/08/08 04:10:35;;;;;;;4.53;1.60;;;11.80;99.90;;;;;;5028796;28;20227;-79
2023/08/08 04:13:02;;;;;;;5.00;1.30;;;11.80;99.90;;;;;;5028350;28;20219;-80
2023/08/08 04:15:28;;;;;;;4.60;1.40;;;11.80;99.90;;;;;;5044963;28;20647;-79
2023/08/08 04:17:56;;;;;;;3.70;1.40;;;11.80;99.90;;;;;;5044179;28;20320;-79
2023/08/08 04:20:23;;;;;;;5.00;1.60;;;11.80;99.90;;;;;;5046064;28;20228;-79
2023/08/08 04:22:50;;;;;;;4.50;1.40;;;11.80;99.90;;;;;;5027960;28;20544;-82
2023/08/08 04:25:17;;;;;;;5.00;1.67;;;11.80;99.90;;;;;;5028205;28;20233;-79
2023/08/08 04:27:44;;;;;;;4.30;1.40;;;11.80;99.90;;;;;;5045015;28;20738;-81
2023/08/08 04:30:11;;;;;;;2.13;1.40;;;11.90;99.90;;;;;;5028079;28;20307;-79
2023/08/08 04:32:38;;;;;;;4.40;1.50;;;11.80;99.90;;;;;;5028866;28;20224;-80
2023/08/08 04:35:07;;;;;;;6.60;1.90;;;11.90;99.90;;;;;;5045061;28;20252;-78
2023/08/08 04:37:33;;;;;;;4.77;1.47;;;11.90;99.90;;;;;;5044852;28;20230;-78
2023/08/08 04:40:00;;;;;;;14.67;2.50;;;11.90;99.90;;;;;;5044531;28;20236;-79
2023/08/08 04:42:27;;;;;;;2.87;1.73;;;11.90;99.90;;;;;;5043211;28;20226;-80
2023/08/08 04:44:54;;;;;;;2.93;1.43;;;11.90;99.90;;;;;;5038095;28;20651;-78
2023/08/08 04:47:21;;;;;;;2.70;1.33;;;11.90;99.90;;;;;;5026888;28;20235;-78
2023/08/08 04:49:48;;;;;;;4.33;1.70;;;11.90;99.90;;;;;;5024608;28;20302;-80
2023/08/08 04:52:17;;;;;;;2.10;1.37;;;11.90;99.90;;;;;;5024832;28;20235;-80
2023/08/08 04:54:44;;;;;;;3.07;1.20;;;11.90;99.90;;;;;;5006863;28;20255;-81
2023/08/08 04:57:11;;;;;;;3.30;1.30;;;11.90;99.90;;;;;;5024762;28;20566;-80
2023/08/08 04:59:38;;;;;;;2.77;1.30;;;11.90;99.90;;;;;;5011147;28;20243;-80
2023/08/08 05:02:05;;;;;;;3.73;1.23;;;11.90;99.90;;;;;;5026130;28;20303;-80
2023/08/08 05:04:33;;;;;;;3.10;1.50;;;11.90;99.90;;;;;;5028785;28;20337;-81
2023/08/08 05:07:00;;;;;;;3.13;1.53;;;11.90;99.90;;;;;;5028224;28;20300;-80
2023/08/08 05:09:28;;;;;;;3.20;1.50;;;11.90;99.90;;;;;;5028888;28;20749;-81
2023/08/08 05:11:55;;;;;;;3.60;1.50;;;11.90;99.90;;;;;;5010928;28;20326;-82
2023/08/08 05:14:21;;;;;;;3.43;1.60;;;11.90;99.90;;;;;;5013740;28;20227;-84
2023/08/08 05:16:48;;;;;;;2.80;1.10;;;11.90;99.90;;;;;;5049027;28;20311;-80
2023/08/08 05:19:15;;;;;;;2.60;1.30;;;11.90;99.90;;;;;;5048164;28;20316;-81
2023/08/08 05:21:42;;;;;;;2.57;1.27;;;11.90;99.90;;;;;;5049343;28;20910;-80
2023/08/08 05:24:09;;;;;;;3.13;1.20;;;11.90;99.90;;;;;;5047765;28;20232;-79
2023/08/08 05:26:37;;;;;;;3.27;1.37;;;11.90;99.90;;;;;;5048170;28;20240;-80
2023/08/08 05:29:04;;;;;;;3.20;1.20;;;11.90;99.90;;;;;;5046490;28;20234;-79
2023/08/08 05:31:30;;;;;;;4.57;1.67;;;11.90;99.90;;;;;;5029760;28;20232;-80
2023/08/08 05:33:57;;;;;;;2.37;1.47;;;11.90;99.90;;;;;;5048073;28;20237;-80
2023/08/08 05:36:24;;;;;;;3.30;1.47;;;12.00;99.90;;;;;;5030152;28;20235;-80
2023/08/08 05:38:50;;;;;;;2.20;1.27;;;12.00;99.90;;;;;;5030868;28;20227;-80
2023/08/08 05:41:17;;;;;;;2.63;1.17;;;12.00;99.90;;;;;;5049013;28;20793;-80
2023/08/08 05:43:45;;;;;;;5.20;1.63;;;12.10;99.90;;;;;;5050134;28;20231;-80
2023/08/08 05:46:12;;;;;;;3.13;1.40;;;12.10;99.90;;;;;;5048328;28;20237;-80
2023/08/08 05:48:38;;;;;;;7.47;1.40;;;12.20;99.90;;;;;;5047849;28;20231;-80
2023/08/08 05:51:05;;;;;;;2.90;1.40;;;12.30;99.90;;;;;;5029029;28;20630;-80
2023/08/08 05:53:32;;;;;;;2.20;1.30;;;12.30;99.90;;;;;;5030487;28;20276;-80
2023/08/08 05:55:59;;;;;;;3.57;1.20;;;12.40;99.90;;;;;;5030885;28;20479;-79
2023/08/08 05:58:26;;;;;;;5.87;1.47;;;12.50;99.90;;;;;;5047377;28;20231;-80
2023/08/08 06:00:54;;;;;;;1.80;1.00;;;12.60;99.90;;;;;;5045468;28;20542;-80
2023/08/08 06:03:21;;;;;;;3.97;1.37;;;12.70;99.90;;;;;;5021693;28;20227;-79
2023/08/08 06:05:48;;;;;;;6.00;1.93;;;12.80;99.90;;;;;;5033786;28;20227;-80
2023/08/08 06:08:16;;;;;;;3.67;1.40;;;12.90;99.90;;;;;;5052271;28;20233;-80
2023/08/08 06:10:43;;;;;;;3.97;1.37;;;12.90;99.90;;;;;;5052621;28;20287;-80
2023/08/08 06:13:09;;;;;;;5.13;1.67;;;13.00;99.90;;;;;;5051375;28;20228;-80
2023/08/08 06:15:36;;;;;;;3.03;1.20;;;13.00;99.90;;;;;;5051565;28;20790;-80
2023/08/08 06:18:05;;;;;;;2.87;1.27;;;13.10;99.90;;;;;;5033210;28;20586;-80
2023/08/08 06:20:32;;;;;;;4.70;1.20;;;13.20;99.90;;;;;;5033076;28;20608;-80
2023/08/08 06:22:59;;;;;;;2.07;1.20;;;13.30;99.90;;;;;;5034031;28;20727;-80
2023/08/08 06:25:25;;;;;;;2.40;1.20;;;13.40;99.90;;;;;;5032964;28;20605;-81
2023/08/08 06:27:52;;;;;;;4.13;1.53;;;13.50;99.90;;;;;;5031361;28;20233;-79
2023/08/08 06:30:19;;;;;;;2.93;1.40;;;13.60;99.90;;;;;;5049902;28;20224;-80
2023/08/08 06:32:45;;;;;;;3.30;1.50;;;13.70;99.90;;;;;;5049286;28;20229;-79
2023/08/08 06:35:16;;;;;;;4.03;1.43;;;13.80;99.90;;;;;;5027987;28;20239;-81
2023/08/08 06:37:43;;;;;;;4.00;1.57;;;13.80;99.90;;;;;;5031598;28;20234;-79
2023/08/08 06:40:12;;;;;;;2.43;1.37;;;13.80;99.90;;;;;;5029417;28;20293;-80
2023/08/08 06:42:39;;;;;;;1.97;1.30;;;13.90;99.90;;;;;;5030961;28;20278;-80
2023/08/08 06:45:09;;;;;;;4.77;1.53;;;13.90;99.90;;;;;;5045822;28;20257;-80
2023/08/08 06:47:36;;;;;;;2.83;1.87;;;14.00;99.90;;;;;;5030524;28;20568;-80
2023/08/08 06:50:03;;;;;;;6.80;1.40;;;14.10;99.90;;;;;;5031105;28;20727;-80
2023/08/08 06:52:31;;;;;;;3.77;1.40;;;14.20;99.90;;;;;;5030877;28;20662;-80
2023/08/08 06:54:58;;;;;;;4.23;2.13;;;14.30;99.90;;;;;;5031362;28;20238;-80
2023/08/08 06:57:24;;;;;;;3.93;1.60;;;14.40;99.90;;;;;;5028328;28;20232;-80
2023/08/08 06:59:52;;;;;;;5.67;1.67;;;14.50;99.90;;;;;;5029316;28;20723;-80
2023/08/08 07:02:20;;;;;;;3.17;1.30;;;14.60;99.90;;;;;;5029965;28;20233;-80
2023/08/08 07:04:47;;;;;;;2.67;1.30;;;14.70;99.90;;;;;;5029213;28;20232;-80
2023/08/08 07:07:13;;;;;;;2.73;1.57;;;14.70;99.90;;;;;;5045193;28;20226;-81
2023/08/08 07:09:41;;;;;;;3.47;1.50;;;14.70;99.90;;;;;;5045878;28;20317;-80
2023/08/08 07:12:09;;;;;;;3.00;1.30;;;14.80;99.90;;;;;;5030017;28;20728;-80
2023/08/08 07:14:35;;;;;;;3.70;1.60;;;14.90;99.90;;;;;;5028700;28;20230;-80
2023/08/08 07:17:03;;;;;;;3.40;1.30;;;15.10;99.90;;;;;;5028511;28;20224;-80
2023/08/08 07:19:30;;;;;;;2.43;1.20;;;15.30;99.90;;;;;;5028771;28;20661;-81
2023/08/08 07:21:57;;;;;;;4.13;1.83;;;15.40;99.90;;;;;;5029000;28;20853;-81
2023/08/08 07:24:28;;;;;;;2.13;1.23;;;15.60;99.90;;;;;;5035295;22;20760;-82
2023/08/08 07:26:56;;;;;;;2.57;1.30;;;15.80;99.90;;;;;;5044450;28;20224;-81
2023/08/08 07:29:23;;;;;;;7.40;1.63;;;16.00;99.90;;;;;;5024915;28;20785;-82
2023/08/08 07:31:49;;;;;;;4.50;1.30;;;16.20;99.90;;;;;;5024857;28;20251;-83
2023/08/08 07:34:16;;;;;;;3.47;1.37;;;16.40;99.90;;;;;;5013420;28;20483;-82
2023/08/08 07:36:43;;;;;;;3.50;1.20;;;16.70;99.90;;;;;;5023922;28;20307;-83
2023/08/08 07:39:10;;;;;;;3.03;1.00;;;17.00;99.90;;;;;;5005521;28;20249;-82
2023/08/08 07:41:37;;;;;;;1.60;0.95;;;17.30;99.90;;;;;;5005154;28;20271;-83
2023/08/08 07:44:06;;;;;;;2.90;1.20;;;17.80;99.90;;;;;;5011221;28;20224;-83
2023/08/08 07:46:33;;;;;;;2.08;1.27;;;18.20;99.90;;;;;;5007597;28;20244;-83
2023/08/08 07:49:03;;;;;;;3.20;1.23;;;18.60;99.90;;;;;;5024033;28;20772;-82
2023/08/08 07:51:30;;;;;;;4.45;1.25;;;18.90;99.90;;;;;;5008311;28;20481;-83
2023/08/08 07:53:56;;;;;;;5.88;1.40;;;19.10;99.90;;;;;;5007844;28;20225;-83
2023/08/08 07:56:23;;;;;;;1.67;0.95;;;19.20;99.90;;;;;;5024831;28;20228;-83
2023/08/08 07:58:50;;;;;;;3.47;1.10;;;19.20;99.90;;;;;;5027963;28;20235;-82
2023/08/08 08:01:18;;;;;;;2.72;1.30;;;19.40;99.90;;;;;;5008774;28;20225;-82
2023/08/08 08:03:45;;;;;;;2.10;1.10;;;19.60;99.90;;;;;;5008850;28;20267;-82
2023/08/08 08:06:12;;;;;;;4.05;1.67;;;19.60;99.90;;;;;;5013670;28;20220;-82
2023/08/08 08:08:38;;;;;;;4.00;1.60;;;19.60;99.90;;;;;;5030993;28;20231;-82
2023/08/08 08:11:05;;;;;;;4.03;1.58;;;19.50;99.90;;;;;;5009586;28;20582;-82
2023/08/08 08:13:32;;;;;;;4.82;1.80;;;19.30;99.90;;;;;;5023660;28;20228;-82
2023/08/08 08:15:59;;;;;;;3.65;1.25;;;19.10;99.90;;;;;;5029594;28;20225;-82
2023/08/08 08:18:28;;;;;;;4.03;1.20;;;18.90;99.90;;;;;;5010380;28;20228;-82
2023/08/08 08:20:55;;;;;;;6.33;1.47;;;18.70;99.90;;;;;;5026040;28;20233;-82
2023/08/08 08:23:22;;;;;;;5.15;1.33;;;18.50;99.90;;;;;;5009996;28;20236;-82
2023/08/08 08:25:50;;;;;;;2.53;1.40;;;18.40;99.90;;;;;;5034033;28;20230;-82
2023/08/08 08:28:17;;;;;;;3.77;1.20;;;18.40;99.90;;;;;;5004443;28;20229;-82
2023/08/08 08:30:44;;;;;;;2.35;1.30;;;18.30;99.90;;;;;;5027068;28;20570;-82
2023/08/08 08:33:10;;;;;;;5.03;1.40;;;18.20;99.90;;;;;;5023050;28;20289;-83
2023/08/08 08:35:38;;;;;;;3.73;1.50;;;18.10;99.90;;;;;;5026545;28;20228;-83
2023/08/08 08:38:06;;;;;;;2.20;1.10;;;17.80;99.90;;;;;;5003736;28;20959;-83
2023/08/08 08:40:37;;;;;;;2.90;1.17;;;17.60;99.90;;;;;;5026729;28;20306;-83
2023/08/08 08:43:04;;;;;;;2.63;1.33;;;17.40;99.90;;;;;;5026006;28;20224;-83
2023/08/08 08:45:31;;;;;;;2.63;1.23;;;17.20;99.90;;;;;;5006252;28;20258;-83
2023/08/08 08:47:59;;;;;;;4.47;1.50;;;17.00;99.90;;;;;;5011087;28;20323;-83
2023/08/08 08:50:28;;;;;;;2.43;1.10;;;16.90;99.90;;;;;;5008277;28;20231;-83
2023/08/08 08:52:57;;;;;;;1.20;0.83;;;16.80;99.90;;;;;;5011014;28;20223;-82
2023/08/08 08:55:24;;;;;;;2.70;1.00;;;16.80;99.90;;;;;;5009149;28;20292;-83
2023/08/08 08:57:51;;;;;;;2.43;1.17;;;16.70;99.90;;;;;;5007877;28;20695;-82
2023/08/08 09:00:19;;;;;;;3.10;1.10;;;16.70;99.90;;;;;;5010061;28;20235;-83
2023/08/08 09:02:46;;;;;;;2.00;1.00;;;16.60;99.90;;;;;;5007556;28;21017;-82
2023/08/08 09:05:14;;;;;;;2.27;0.90;;;16.60;99.90;;;;;;5006189;28;20229;-83
2023/08/08 09:07:41;;;;;;;3.80;1.10;;;16.60;99.90;;;;;;5009466;28;20232;-82
2023/08/08 09:10:09;;;;;;;2.97;1.20;;;16.50;99.90;;;;;;5024346;28;20228;-82
2023/08/08 09:12:36;;;;;;;2.20;1.00;;;16.50;99.90;;;;;;5009883;28;20998;-82
2023/08/08 09:15:05;;;;;;;3.30;1.00;;;16.60;99.90;;;;;;5010155;28;20226;-83
2023/08/08 09:17:33;;;;;;;3.23;0.93;;;16.60;99.90;;;;;;5008161;28;20240;-83
2023/08/08 09:19:59;;;;;;;1.80;1.00;;;16.70;99.90;;;;;;5011221;28;20263;-82
2023/08/08 09:22:26;;;;;;;2.30;0.90;;;16.80;99.90;;;;;;5009145;28;20244;-83
2023/08/08 09:24:53;;;;;;;1.47;0.80;;;16.80;99.90;;;;;;5009030;28;20411;-83
2023/08/08 09:27:22;;;;;;;2.60;0.77;;;16.90;99.90;;;;;;5024983;28;20236;-83
2023/08/08 09:29:49;;;;;;;2.53;1.10;;;16.90;99.90;;;;;;5025803;28;20225;-83
2023/08/08 09:32:17;;;;;;;2.73;1.00;;;17.00;99.90;;;;;;5010171;28;20225;-82
2023/08/08 09:34:45;;;;;;;3.70;0.90;;;17.00;99.90;;;;;;5011846;28;20224;-83
2023/08/08 09:37:13;;;;;;;2.83;1.20;;;17.00;99.90;;;;;;5024672;28;20225;-83
2023/08/08 09:39:40;;;;;;;1.97;0.97;;;17.00;99.90;;;;;;5006878;28;20232;-83
2023/08/08 09:42:11;;;;;;;3.53;1.13;;;17.10;99.90;;;;;;5024398;28;20243;-82
2023/08/08 09:44:39;;;;;;;2.60;0.80;;;17.10;99.90;;;;;;5007791;28;20219;-82
2023/08/08 09:47:06;;;;;;;2.97;1.00;;;17.30;99.90;;;;;;5008400;28;20649;-83
2023/08/08 09:49:34;;;;;;;2.60;0.90;;;17.30;99.90;;;;;;5028618;28;20251;-82
2023/08/08 09:52:02;;;;;;;2.77;0.97;;;17.40;99.90;;;;;;5028866;28;20226;-83
2023/08/08 09:54:30;;;;;;;2.17;0.80;;;17.50;99.90;;;;;;5007400;28;20228;-84
2023/08/08 09:56:57;;;;;;;1.73;1.10;;;17.50;99.90;;;;;;5009911;28;20929;-84
2023/08/08 09:59:24;;;;;;;2.77;1.00;;;17.50;99.90;;;;;;5009697;28;20240;-83
2023/08/08 10:01:54;;;;;;;2.83;1.13;;;17.50;99.90;;;;;;5007618;28;20238;-83
2023/08/08 10:04:22;;;;;;;3.00;1.00;;;17.40;99.90;;;;;;5025947;28;20237;-84
2023/08/08 10:06:48;;;;;;;2.60;1.00;;;17.20;99.90;;;;;;5003728;28;20235;-85
2023/08/08 10:09:15;;;;;;;7.40;2.33;;;17.10;99.90;;;;;;5003423;28;20734;-82
2023/08/08 10:11:44;;;;;;;10.33;1.97;;;16.90;99.90;;;;;;5027112;28;20224;-81
2023/08/08 10:14:11;;;;;;;3.10;1.10;;;16.60;99.90;;;;;;5024391;28;20320;-81
2023/08/08 10:16:38;;;;;;;4.80;1.30;;;16.30;99.90;;;;;;5025791;28;20252;-81
2023/08/08 10:19:07;;;;;;;6.13;1.40;;;15.90;99.90;;;;;;5028339;28;20267;-81
2023/08/08 10:21:35;;;;;;;3.07;1.50;;;15.50;99.90;;;;;;5011977;28;20715;-80
2023/08/08 10:24:04;;;;;;;4.03;1.30;;;15.20;99.90;;;;;;5026534;28;20300;-80
2023/08/08 10:26:31;;;;;;;6.70;1.60;;;14.80;99.90;;;;;;5011477;28;20266;-81
2023/08/08 10:29:00;;;;;;;2.93;1.40;;;14.60;99.90;;;;;;5018075;28;20228;-80
2023/08/08 10:31:27;;;;;;;4.00;1.70;;;14.40;99.90;;;;;;5027320;28;20723;-81
2023/08/08 10:34:02;;;;;;;3.37;1.20;;;14.30;99.90;;;;;;5028195;28;20862;-80
2023/08/08 10:39:22;;;;;;;3.70;1.20;;;14.30;99.90;;;;;;5050452;28;20621;-82
2023/08/08 10:41:50;;;;;;;2.20;1.10;;;14.10;99.90;;;;;;5045941;28;20810;-83
2023/08/08 10:44:24;;;;;;;2.53;1.00;;;14.10;99.90;;;;;;5043797;28;20230;-82
2023/08/08 10:46:52;;;;;;;3.33;1.50;;;14.10;99.90;;;;;;5045029;28;20232;-82
2023/08/08 10:49:19;;;;;;;3.57;1.37;;;14.10;99.90;;;;;;5055283;28;20221;-82
2023/08/08 10:51:47;;;;;;;4.33;1.20;;;14.10;99.90;;;;;;5059618;28;20224;-82
2023/08/08 10:54:15;;;;;;;2.80;1.17;;;14.20;99.90;;;;;;5059473;28;20221;-82
2023/08/08 10:56:48;;;;;;;3.83;1.40;;;14.30;99.90;;;;;;5073919;28;20222;-82
2023/08/08 10:59:18;;;;;;;3.63;1.20;;;14.40;99.90;;;;;;5064631;28;20226;-83
2023/08/08 11:01:47;;;;;;;2.40;1.23;;;14.50;99.90;;;;;;5056699;28;20631;-83
2023/08/08 11:04:15;;;;;;;2.97;1.13;;;14.70;99.90;;;;;;5056250;28;20238;-82
2023/08/08 11:06:42;;;;;;;2.83;1.10;;;14.80;99.90;;;;;;5060376;28;20260;-82
2023/08/08 11:09:09;;;;;;;2.17;0.97;;;15.00;99.90;;;;;;5056055;28;20340;-82
2023/08/08 11:11:40;;;;;;;4.97;1.13;;;15.00;99.90;;;;;;5055495;28;20251;-82
2023/08/08 11:14:13;;;;;;;2.90;0.97;;;15.00;99.90;;;;;;5057721;28;20313;-83
2023/08/08 11:16:39;;;;;;;3.20;1.10;;;14.90;99.90;;;;;;5059309;28;20300;-83
2023/08/08 11:19:06;;;;;;;2.67;0.90;;;14.90;99.90;;;;;;5064496;28;20889;-83
2023/08/08 11:21:36;;;;;;;3.30;1.13;;;14.90;99.90;;;;;;5059627;28;20718;-83
2023/08/08 11:24:03;;;;;;;2.10;0.80;;;14.90;99.90;;;;;;5063148;28;20223;-83
2023/08/08 11:26:31;;;;;;;2.57;1.40;;;14.90;99.90;;;;;;5048355;28;20234;-83
2023/08/08 11:28:59;;;;;;;3.17;1.00;;;15.00;99.90;;;;;;5061157;28;20290;-83
2023/08/08 11:31:28;;;;;;;1.47;0.90;;;15.20;99.90;;;;;;5062145;28;20227;-83
2023/08/08 11:33:55;;;;;;;3.60;1.10;;;15.30;99.90;;;;;;5059790;28;20226;-82
2023/08/08 11:36:22;;;;;;;2.30;1.00;;;15.40;99.90;;;;;;5056189;28;20222;-83
2023/08/08 11:38:50;;;;;;;4.93;1.10;;;15.50;99.90;;;;;;5059876;28;20269;-82
2023/08/08 11:41:19;;;;;;;2.87;1.50;;;15.50;99.90;;;;;;5057308;28;20230;-82
2023/08/08 11:43:47;;;;;;;2.03;0.80;;;15.40;99.90;;;;;;5062442;28;20682;-82
2023/08/08 11:46:15;;;;;;;2.93;1.20;;;15.30;99.90;;;;;;5058856;28;20775;-82
2023/08/08 11:48:43;;;;;;;5.00;1.10;;;15.20;99.90;;;;;;5058728;28;20241;-82
2023/08/08 11:51:10;;;;;;;1.87;0.90;;;15.10;99.90;;;;;;5045291;28;20220;-82
2023/08/08 11:53:48;;;;;;;5.13;1.30;;;15.10;99.90;;;;;;5047257;28;20221;-83
2023/08/08 11:56:15;;;;;;;2.03;0.90;;;15.20;99.90;;;;;;5043067;28;20226;-83
2023/08/08 11:58:41;;;;;;;2.77;1.00;;;15.30;99.90;;;;;;5041379;28;20231;-83
2023/08/08 12:01:09;;;;;;;2.33;1.20;;;15.40;99.90;;;;;;5047104;28;20706;-83
2023/08/08 12:03:38;;;;;;;2.87;1.33;;;15.50;99.90;;;;;;5050423;28;20227;-82
2023/08/08 12:06:13;;;;;;;3.37;1.10;;;15.60;99.90;;;;;;5042874;28;20260;-84
2023/08/08 12:08:42;;;;;;;4.67;1.10;;;15.60;99.90;;;;;;5046854;28;20229;-83
2023/08/08 12:11:09;;;;;;;4.03;1.20;;;15.70;99.90;;;;;;5040401;28;20245;-82
2023/08/08 12:13:39;;;;;;;3.70;1.13;;;15.70;99.90;;;;;;5039608;28;20230;-81
2023/08/08 12:16:07;;;;;;;3.43;0.80;;;15.80;99.90;;;;;;5038845;28;20852;-80
2023/08/08 12:18:34;;;;;;;4.47;1.30;;;15.80;99.90;;;;;;5044088;28;20235;-80
2023/08/08 12:21:01;;;;;;;3.80;0.90;;;15.90;99.90;;;;;;5045471;28;20592;-81
2023/08/08 12:23:29;;;;;;;2.60;1.00;;;16.00;99.90;;;;;;5042724;28;20227;-80
2023/08/08 12:25:57;;;;;;;3.33;1.17;;;16.20;99.90;;;;;;5042613;28;20287;-80
2023/08/08 12:28:24;;;;;;;2.33;0.97;;;16.30;99.90;;;;;;5043609;28;20238;-81
2023/08/08 12:30:51;;;;;;;2.73;1.10;;;16.40;99.90;;;;;;5050360;28;20219;-80
2023/08/08 12:33:17;;;;;;;1.70;1.00;;;16.60;99.90;;;;;;5048090;28;20690;-81
2023/08/08 12:35:44;;;;;;;4.90;1.03;;;16.80;99.90;;;;;;5046443;28;20220;-81
2023/08/08 12:38:11;;;;;;;3.90;1.10;;;17.00;99.90;;;;;;5051432;28;20228;-81
2023/08/08 12:40:39;;;;;;;3.50;1.17;;;17.20;99.90;;;;;;5048961;28;20863;-80
2023/08/08 12:43:05;;;;;;;2.73;1.00;;;17.30;99.90;;;;;;5043495;28;20230;-80
2023/08/08 12:45:32;;;;;;;3.23;1.10;;;17.50;99.90;;;;;;5047386;28;20228;-80
2023/08/08 12:47:59;;;;;;;2.60;0.73;;;17.70;99.90;;;;;;5043825;28;20220;-80
2023/08/08 12:50:25;;;;;;;1.63;0.77;;;17.90;99.90;;;;;;5041178;28;20223;-82